Weather History for KRNH - March, 2013

Change the Weather History Date:

Sunday, March 10, 2013

  Actual Average (KMSP) Record (KMSP)
Temperature  
Mean Temperature 32 °F 30 °F  
Max Temperature 33 °F 38 °F 66 °F (2012)
Min Temperature 28 °F 22 °F -17 °F (1948)
Degree Days  
Heating Degree Days 34 35  
Month to date heating degree days 369  
Since 1 July heating degree days 6159  
Cooling Degree Days 0 0  
Month to date cooling degree days 0  
Year to date cooling degree days 0  
Moisture  
Dew Point 31 °F    
Average Humidity 93    
Maximum Humidity 100    
Minimum Humidity 81    
Precipitation  
Precipitation 0.01 in 0.06 in 0.59 in (1878)
Month to date precipitation 0.52  
Year to date precipitation 2.19  
Snow  
Snow 0.00 in 0.40 in 4.20 in (1956)
Month to date snowfall 4.1  
Since 1 July snowfall 45.8  
Snow Depth -    
Sea Level Pressure  
Sea Level Pressure 29.86 in    
Wind  
Wind Speed 13 mph (North)    
Max Wind Speed 21 mph    
Max Gust Speed 28 mph    
Visibility 9 miles    
Events Rain , Snow    
T = Trace of Precipitation, MM = Missing Value Source: NWS Daily Summary

Daily Weather History Graph

Daily Weather History Graph

Search for Another Location

Airport or City:

Trip Planner

Search our weather history database for the weather conditions in past years. The results will help you decide how hot, cold, wet, or windy it might be!

Date:

Astronomy

Mar. 10, 2013 Rise Set
Actual Time 7:31 AM CDT 7:09 PM CDT
Civil Twilight 7:02 AM CDT 7:39 PM CDT
Nautical Twilight 6:28 AM CDT 8:13 PM CDT
Astronomical Twilight 5:53 AM CDT 8:48 PM CDT
Moon 6:33 AM CDT (3/10) 6:17 PM CDT (3/10)
Length of Visible Light 12h 37m
Length of Day
11h 38m
Waning Crescent, 2% of the Moon is Illuminated
Mar 10
Waning Crescent
Mar 11
New
Mar 19
First Quarter
Mar 27
Full
Apr 2
Last Quarter

Hourly Weather History & Observations

Time (CDT) Temp. Windchill Dew Point Humidity Pressure Visibility Wind Dir Wind Speed Gust Speed Precip Events Conditions
12:15 AM 33.8 °F 30.8 °F 33.8 °F 100% 29.76 in 0.2 mi NW 3.5 mph - N/A Rain Light Rain
12:35 AM 33.8 °F 30.8 °F 33.8 °F 100% 29.76 in 0.2 mi NW 3.5 mph - N/A Rain Light Rain
12:55 AM 33.8 °F 28.6 °F 33.8 °F 100% 29.77 in 0.5 mi WNW 5.8 mph - 0.01 in Rain Rain
1:15 AM 33.8 °F 26.4 °F 33.8 °F 100% 29.77 in 2.0 mi NNW 9.2 mph - N/A   Overcast
1:35 AM 33.8 °F 25.3 °F 33.8 °F 100% 29.77 in 7.0 mi NNW 11.5 mph - N/A   Overcast
1:55 AM 33.8 °F 25.3 °F 33.8 °F 100% 29.77 in 4.0 mi NNW 11.5 mph - N/A   Overcast
3:15 AM 32.0 °F 23.6 °F 32.0 °F 100% 29.77 in 10.0 mi North 10.4 mph - N/A   Overcast
3:35 AM 32.0 °F 22.5 °F 32.0 °F 100% 29.77 in 10.0 mi North 12.7 mph 17.3 mph N/A   Overcast
3:55 AM 32.0 °F 23.6 °F 32.0 °F 100% 29.78 in 10.0 mi North 10.4 mph - N/A   Overcast
4:15 AM 32.0 °F 23.0 °F 32.0 °F 100% 29.79 in 10.0 mi North 11.5 mph - N/A   Overcast
4:35 AM 32.0 °F 24.2 °F 32.0 °F 100% 29.80 in 10.0 mi North 9.2 mph - N/A   Overcast
4:55 AM 32.0 °F 22.1 °F 32.0 °F 100% 29.79 in 10.0 mi North 13.8 mph - N/A   Overcast
5:15 AM 32.0 °F 22.5 °F 32.0 °F 100% 29.80 in 10.0 mi North 12.7 mph - N/A   Overcast
5:35 AM 32.0 °F 20.8 °F 32.0 °F 100% 29.79 in 10.0 mi North 17.3 mph 20.7 mph N/A   Overcast
5:55 AM 32.0 °F 20.8 °F 32.0 °F 100% 29.78 in 10.0 mi North 17.3 mph - N/A   Overcast
6:15 AM 33.8 °F 23.5 °F 32.0 °F 93% 29.82 in 10.0 mi North 16.1 mph - N/A   Overcast
6:35 AM 33.8 °F 23.5 °F 32.0 °F 93% 29.83 in 10.0 mi North 16.1 mph - N/A   Overcast
7:15 AM 32.0 °F 22.1 °F 32.0 °F 100% 29.84 in 10.0 mi North 13.8 mph 18.4 mph N/A   Overcast
7:35 AM 32.0 °F 21.2 °F 32.0 °F 100% 29.82 in 10.0 mi North 16.1 mph 21.9 mph N/A   Overcast
7:55 AM 32.0 °F 20.5 °F 32.0 °F 100% 29.83 in 10.0 mi North 18.4 mph 24.2 mph N/A   Overcast
8:15 AM 32.0 °F 22.5 °F 32.0 °F 100% 29.85 in 10.0 mi North 12.7 mph - N/A   Overcast
8:35 AM 32.0 °F 21.6 °F 32.0 °F 100% 29.88 in 10.0 mi North 15.0 mph - N/A   Overcast
8:55 AM 33.8 °F 23.5 °F 32.0 °F 93% 29.89 in 10.0 mi North 16.1 mph - N/A   Overcast
9:15 AM 33.8 °F 25.3 °F 32.0 °F 93% 29.89 in 10.0 mi North 11.5 mph - N/A   Overcast
9:35 AM 33.8 °F 23.9 °F 30.2 °F 87% 29.93 in 10.0 mi North 15.0 mph - N/A   Overcast
9:55 AM 33.8 °F 23.2 °F 30.2 °F 87% 29.92 in 10.0 mi North 17.3 mph - N/A   Overcast
10:15 AM 33.8 °F 23.2 °F 30.2 °F 87% 29.91 in 10.0 mi NNE 17.3 mph 21.9 mph N/A   Overcast
10:35 AM 33.8 °F 25.3 °F 30.2 °F 87% 29.93 in 10.0 mi NNE 11.5 mph 20.7 mph N/A   Overcast
10:55 AM 33.8 °F 24.3 °F 30.2 °F 87% 29.91 in 10.0 mi NNE 13.8 mph 23.0 mph N/A   Overcast
11:15 AM 33.8 °F 23.2 °F 30.2 °F 87% 29.94 in 10.0 mi NNE 17.3 mph 21.9 mph N/A   Overcast
11:35 AM 33.8 °F 22.8 °F 30.2 °F 87% 29.94 in 10.0 mi NNE 18.4 mph - N/A   Overcast
11:55 AM 33.8 °F 23.5 °F 30.2 °F 87% 29.94 in 10.0 mi NNE 16.1 mph - N/A   Overcast
12:35 PM 33.8 °F 24.8 °F 30.2 °F 87% 29.93 in 10.0 mi NNE 12.7 mph - N/A   Overcast
12:55 PM 33.8 °F 23.2 °F 30.2 °F 87% 29.94 in 10.0 mi NNE 17.3 mph - N/A   Overcast
1:15 PM 33.8 °F 22.2 °F 30.2 °F 87% 29.93 in 10.0 mi NNE 20.7 mph 25.3 mph N/A   Overcast
1:35 PM 33.8 °F 23.5 °F 30.2 °F 87% 29.90 in 10.0 mi NNE 16.1 mph 23.0 mph N/A   Overcast
1:55 PM 33.8 °F 22.2 °F 30.2 °F 87% 29.88 in 10.0 mi NNE 20.7 mph 26.5 mph N/A   Overcast
2:15 PM 33.8 °F 22.2 °F 30.2 °F 87% 29.89 in 10.0 mi NNE 20.7 mph 27.6 mph N/A   Overcast
2:35 PM 33.8 °F 22.5 °F 30.2 °F 87% 29.88 in 10.0 mi North 19.6 mph 23.0 mph N/A   Overcast
2:55 PM 33.8 °F 24.3 °F 30.2 °F 87% 29.89 in 10.0 mi NNE 13.8 mph 20.7 mph N/A   Overcast
3:15 PM 33.8 °F 24.3 °F 30.2 °F 87% 29.90 in 10.0 mi NNE 13.8 mph - N/A   Overcast
3:35 PM 33.8 °F 22.5 °F 28.4 °F 81% 29.90 in 10.0 mi NNE 19.6 mph - N/A   Overcast
3:55 PM 33.8 °F 22.5 °F 28.4 °F 81% 29.90 in 10.0 mi NNE 19.6 mph 25.3 mph N/A   Overcast
4:15 PM 33.8 °F 22.2 °F 30.2 °F 87% 29.89 in 10.0 mi NNE 20.7 mph - N/A   Overcast
4:35 PM 33.8 °F 22.8 °F 30.2 °F 87% 29.88 in 10.0 mi NNE 18.4 mph 25.3 mph N/A   Overcast
4:55 PM 32.0 °F 20.5 °F 30.2 °F 93% 29.87 in 10.0 mi North 18.4 mph 26.5 mph N/A   Overcast
5:15 PM 32.0 °F 20.1 °F 30.2 °F 93% 29.87 in 10.0 mi North 19.6 mph 23.0 mph N/A   Overcast
5:35 PM 32.0 °F 20.8 °F 30.2 °F 93% 29.86 in 10.0 mi NNE 17.3 mph - N/A   Overcast
5:55 PM 32.0 °F 21.6 °F 30.2 °F 93% 29.87 in 10.0 mi NNE 15.0 mph 24.2 mph N/A   Overcast
6:15 PM 32.0 °F 21.2 °F 30.2 °F 93% 29.86 in 10.0 mi NNE 16.1 mph 24.2 mph N/A   Overcast
6:35 PM 32.0 °F 21.2 °F 30.2 °F 93% 29.87 in 10.0 mi NNE 16.1 mph 23.0 mph N/A   Overcast
6:55 PM 32.0 °F 20.8 °F 30.2 °F 93% 29.86 in 10.0 mi NNE 17.3 mph 24.2 mph N/A   Overcast
7:15 PM 32.0 °F 20.1 °F 30.2 °F 93% 29.86 in 10.0 mi NNE 19.6 mph 25.3 mph N/A   Overcast
7:35 PM 32.0 °F 21.2 °F 30.2 °F 93% 29.87 in 10.0 mi NNE 16.1 mph 25.3 mph N/A   Overcast
7:55 PM 32.0 °F 20.8 °F 30.2 °F 93% 29.88 in 10.0 mi NNE 17.3 mph 20.7 mph N/A   Overcast
8:15 PM 32.0 °F 21.6 °F 30.2 °F 93% 29.88 in 10.0 mi NNE 15.0 mph - N/A   Overcast
8:35 PM 32.0 °F 20.8 °F 28.4 °F 87% 29.89 in 10.0 mi NNE 17.3 mph 23.0 mph N/A   Overcast
9:15 PM 32.0 °F 20.5 °F 28.4 °F 87% 29.89 in 10.0 mi NNE 18.4 mph 23.0 mph N/A   Overcast
9:35 PM 32.0 °F 21.6 °F 28.4 °F 87% 29.89 in 10.0 mi NNE 15.0 mph 20.7 mph N/A   Overcast
9:55 PM 32.0 °F 20.8 °F 28.4 °F 87% 29.88 in 10.0 mi NNE 17.3 mph - N/A   Overcast
10:15 PM 32.0 °F 21.2 °F 28.4 °F 87% 29.87 in 10.0 mi North 16.1 mph - N/A   Overcast
10:35 PM 30.2 °F 18.5 °F 28.4 °F 93% 29.87 in 10.0 mi North 17.3 mph - N/A   Overcast
10:55 PM 30.2 °F 18.5 °F 28.4 °F 93% 29.86 in 10.0 mi North 17.3 mph 20.7 mph N/A   Overcast
11:15 PM 30.2 °F 18.1 °F 26.6 °F 86% 29.85 in 10.0 mi North 18.4 mph 24.2 mph N/A   Overcast
11:35 PM 30.2 °F 19.3 °F 28.4 °F 93% 29.84 in 3.0 mi NNE 15.0 mph - N/A Snow Light Snow
12:15 AM 30.2 °F 19.8 °F 28.4 °F 93% 29.84 in 1.0 mi NNE 13.8 mph 18.4 mph N/A Snow Light Snow
12:35 AM 30.2 °F 21.3 °F 28.4 °F 93% 29.84 in 1.2 mi NNE 10.4 mph - N/A Snow Light Snow
12:55 AM 28.4 °F 19.1 °F 28.4 °F 100% 29.83 in 1.8 mi NNE 10.4 mph - N/A Snow Light Snow